createdAt,value
2019-03-19T00:00:19.942Z,16.15
2019-03-19T00:02:49.402Z,17.62
2019-03-19T00:05:18.938Z,16.73
2019-03-19T00:07:48.393Z,17.23
2019-03-19T00:10:17.867Z,18.23
2019-03-19T00:12:47.262Z,19.62
2019-03-19T00:15:17.123Z,21.37
2019-03-19T00:17:46.592Z,15.03
2019-03-19T00:20:16.016Z,18.50
2019-03-19T00:22:45.523Z,17.10
2019-03-19T00:25:15.070Z,16.02
2019-03-19T00:27:44.525Z,15.85
2019-03-19T00:30:14.293Z,15.93
2019-03-19T00:32:43.749Z,18.37
2019-03-19T00:35:13.313Z,16.73
2019-03-19T00:37:42.873Z,17.82
2019-03-19T00:40:12.970Z,16.25
2019-03-19T00:42:42.409Z,19.23
2019-03-19T00:45:12.580Z,19.27
2019-03-19T00:47:42.163Z,18.07
2019-03-19T00:50:12.017Z,13.03
2019-03-19T00:52:41.441Z,16.40
2019-03-19T00:55:11.231Z,17.73
2019-03-19T00:57:40.670Z,19.10
2019-03-19T01:00:10.669Z,14.63
2019-03-19T01:02:40.079Z,12.55
2019-03-19T01:05:09.667Z,16.80
2019-03-19T01:07:40.101Z,14.90
2019-03-19T01:10:10.753Z,15.75
2019-03-19T01:12:40.174Z,19.37
2019-03-19T01:15:10.566Z,17.42
2019-03-19T01:17:40.087Z,17.10
2019-03-19T01:20:12.830Z,17.23
2019-03-19T01:22:42.281Z,18.42
2019-03-19T01:25:12.959Z,17.85
2019-03-19T01:27:42.371Z,19.50
2019-03-19T01:30:12.368Z,16.10
2019-03-19T01:32:41.793Z,15.55
2019-03-19T01:35:11.415Z,17.77
2019-03-19T01:37:40.909Z,15.23
2019-03-19T01:40:10.434Z,19.35
2019-03-19T01:42:40.123Z,18.93
2019-03-19T01:45:09.754Z,18.30
2019-03-19T01:47:39.350Z,17.35
2019-03-19T01:50:09.064Z,18.37
2019-03-19T01:52:38.536Z,19.40
2019-03-19T01:55:09.175Z,17.07
2019-03-19T01:57:38.623Z,19.62
2019-03-19T02:00:09.298Z,15.80
2019-03-19T02:02:38.794Z,17.35
2019-03-19T02:05:09.091Z,20.25
2019-03-19T02:07:38.521Z,16.20
2019-03-19T02:10:08.710Z,18.45
2019-03-19T02:12:38.566Z,13.90
2019-03-19T02:15:09.046Z,17.20
2019-03-19T02:17:38.494Z,18.23
2019-03-19T02:20:09.636Z,13.30
2019-03-19T02:22:39.126Z,14.47
2019-03-19T02:25:10.250Z,18.67
2019-03-19T02:27:39.809Z,15.10
2019-03-19T02:30:10.428Z,15.60
2019-03-19T02:32:40.134Z,17.32
2019-03-19T02:35:09.724Z,12.58
2019-03-19T02:37:39.184Z,13.08
2019-03-19T02:40:09.077Z,18.60
2019-03-19T02:42:38.496Z,12.40
2019-03-19T02:45:08.416Z,17.02
2019-03-19T02:47:37.842Z,17.23
2019-03-19T02:50:08.104Z,16.05
2019-03-19T02:52:37.547Z,18.17
2019-03-19T02:55:07.329Z,15.45
2019-03-19T02:57:36.810Z,17.23
2019-03-19T03:00:07.284Z,19.02
2019-03-19T03:02:36.724Z,17.20
2019-03-19T03:05:07.895Z,15.93
2019-03-19T03:07:37.328Z,11.97
2019-03-19T03:10:07.322Z,17.82
2019-03-19T03:12:36.752Z,17.67
2019-03-19T03:15:06.635Z,14.33
2019-03-19T03:17:36.055Z,16.10
2019-03-19T03:20:05.891Z,15.13
2019-03-19T03:22:34.706Z,16.23
2019-03-19T03:25:04.685Z,11.10
2019-03-19T03:27:34.135Z,17.85
2019-03-19T03:30:03.619Z,14.25
2019-03-19T03:32:33.084Z,17.32
2019-03-19T03:35:02.552Z,19.05
2019-03-19T03:37:31.976Z,19.15
2019-03-19T03:40:01.417Z,19.77
2019-03-19T03:42:30.863Z,17.98
2019-03-19T03:45:00.469Z,17.32
2019-03-19T03:47:29.948Z,18.42
2019-03-19T03:49:59.375Z,16.40
2019-03-19T03:52:28.824Z,16.20
2019-03-19T03:54:58.281Z,12.35
2019-03-19T03:57:27.705Z,17.05
2019-03-19T03:59:57.165Z,14.45
2019-03-19T04:02:26.683Z,18.40
2019-03-19T04:04:56.157Z,20.77
2019-03-19T04:07:25.635Z,18.00
2019-03-19T04:09:55.088Z,18.75
2019-03-19T04:12:24.517Z,21.27
2019-03-19T04:14:54.447Z,14.47
2019-03-19T04:17:24.410Z,25.68
2019-03-19T04:19:56.549Z,15.43
2019-03-19T04:22:26.411Z,11.05
2019-03-19T04:24:56.064Z,20.65
2019-03-19T04:27:25.475Z,16.75
2019-03-19T04:29:55.903Z,16.05
2019-03-19T04:32:25.364Z,21.33
2019-03-19T04:34:54.797Z,18.20
2019-03-19T04:37:24.212Z,14.75
2019-03-19T04:39:53.855Z,17.30
2019-03-19T04:42:23.325Z,16.93
2019-03-19T04:44:52.747Z,19.67
2019-03-19T04:47:22.169Z,17.40
2019-03-19T04:49:51.592Z,19.10
2019-03-19T04:52:21.031Z,18.10
2019-03-19T04:54:51.764Z,20.25
2019-03-19T04:57:26.607Z,19.25
2019-03-19T04:59:52.409Z,19.33
2019-03-19T05:02:21.843Z,18.40
2019-03-19T05:04:53.385Z,16.67
2019-03-19T05:07:22.796Z,15.28
2019-03-19T05:09:52.245Z,17.37
2019-03-19T05:12:21.708Z,18.73
2019-03-19T05:14:51.644Z,24.35
2019-03-19T05:17:23.060Z,20.45
2019-03-19T05:19:52.811Z,15.68
2019-03-19T05:22:22.225Z,15.15
2019-03-19T05:24:51.656Z,16.07
2019-03-19T05:27:21.114Z,18.45
2019-03-19T05:29:52.194Z,19.60
2019-03-19T05:32:22.845Z,16.50
2019-03-19T05:34:52.334Z,21.42
2019-03-19T05:37:21.743Z,16.43
2019-03-19T05:39:51.202Z,22.48
2019-03-19T05:42:20.622Z,18.02
2019-03-19T05:44:50.050Z,16.25
2019-03-19T05:47:19.934Z,24.27
2019-03-19T05:49:49.430Z,17.52
2019-03-19T05:52:18.845Z,14.00
2019-03-19T05:54:48.280Z,16.75
2019-03-19T05:57:17.741Z,15.08
2019-03-19T05:59:47.174Z,12.97
2019-03-19T06:02:16.630Z,19.73
2019-03-19T06:04:46.081Z,17.00
2019-03-19T06:07:15.550Z,20.10
2019-03-19T06:09:45.026Z,17.62
2019-03-19T06:12:14.473Z,16.77
2019-03-19T06:14:44.131Z,18.70
2019-03-19T06:17:13.732Z,19.40
2019-03-19T06:19:43.232Z,17.17
2019-03-19T06:22:12.708Z,12.58
2019-03-19T06:24:42.258Z,19.93
2019-03-19T06:27:11.696Z,15.60
2019-03-19T06:29:41.343Z,14.63
2019-03-19T06:32:11.109Z,20.65
2019-03-19T06:34:41.020Z,22.60
2019-03-19T06:37:09.892Z,16.17
2019-03-19T06:39:39.331Z,16.42
2019-03-19T06:42:08.037Z,19.10
2019-03-19T06:44:37.478Z,19.15
2019-03-19T06:47:06.884Z,16.12
2019-03-19T06:49:36.330Z,17.23
2019-03-19T06:52:05.753Z,14.35
2019-03-19T06:54:35.170Z,16.70
2019-03-19T06:57:04.662Z,18.85
2019-03-19T06:59:34.122Z,21.62
2019-03-19T07:02:03.565Z,19.17
2019-03-19T07:04:33.027Z,19.48
2019-03-19T07:07:02.481Z,26.20
2019-03-19T07:09:31.999Z,25.72
2019-03-19T07:12:01.841Z,19.92
2019-03-19T07:14:31.691Z,25.10
2019-03-19T07:17:01.096Z,21.37
2019-03-19T07:19:30.541Z,20.88
2019-03-19T07:21:59.945Z,19.35
2019-03-19T07:24:29.388Z,28.00
2019-03-19T07:26:58.823Z,23.00
2019-03-19T07:29:28.293Z,22.20
2019-03-19T07:31:57.721Z,24.77
2019-03-19T07:34:27.157Z,29.98
2019-03-19T07:36:56.751Z,23.18
2019-03-19T07:39:26.224Z,22.25
2019-03-19T07:41:55.659Z,21.90
2019-03-19T07:44:25.102Z,18.30
2019-03-19T07:46:54.547Z,19.42
2019-03-19T07:49:24.009Z,18.65
2019-03-19T07:51:53.678Z,19.45
2019-03-19T07:54:23.157Z,24.32
2019-03-19T07:56:52.588Z,18.92
2019-03-19T07:59:22.222Z,21.30
2019-03-19T08:01:51.683Z,16.42
2019-03-19T08:04:21.106Z,18.12
2019-03-19T08:06:50.533Z,15.60
2019-03-19T08:09:19.969Z,19.02
2019-03-19T08:11:48.794Z,20.82
2019-03-19T08:14:18.349Z,21.15
2019-03-19T08:16:47.835Z,22.87
2019-03-19T08:19:17.239Z,20.60
2019-03-19T08:21:46.726Z,21.00
2019-03-19T08:24:16.137Z,23.42
2019-03-19T08:26:45.549Z,20.82
2019-03-19T08:29:15.018Z,22.07
2019-03-19T08:31:44.462Z,20.48
2019-03-19T08:34:14.156Z,24.07
2019-03-19T08:36:43.612Z,17.80
2019-03-19T08:39:13.140Z,17.15
2019-03-19T08:41:42.556Z,22.93
2019-03-19T08:44:12.024Z,17.65
2019-03-19T08:46:41.450Z,16.57
2019-03-19T08:49:11.100Z,14.80
2019-03-19T08:51:40.531Z,17.82
2019-03-19T08:54:09.961Z,18.05
2019-03-19T08:56:39.435Z,14.93
2019-03-19T08:59:08.914Z,15.68
2019-03-19T09:01:38.398Z,12.95
2019-03-19T09:04:07.798Z,11.03
2019-03-19T09:06:38.438Z,9.03
2019-03-19T09:09:09.657Z,11.95
2019-03-19T09:11:39.092Z,11.75
2019-03-19T09:14:08.518Z,18.37
2019-03-19T09:16:37.922Z,18.40
2019-03-19T09:19:07.378Z,18.92
2019-03-19T09:21:36.828Z,21.80
2019-03-19T09:24:06.290Z,17.70
2019-03-19T09:26:35.736Z,20.65
2019-03-19T09:29:05.282Z,19.55
2019-03-19T09:31:34.822Z,15.38
2019-03-19T09:34:04.400Z,16.93
2019-03-19T09:36:33.849Z,15.08
2019-03-19T09:39:04.857Z,14.18
2019-03-19T09:41:34.264Z,14.13
2019-03-19T09:44:03.711Z,11.90
2019-03-19T09:46:33.137Z,12.82
2019-03-19T09:49:02.607Z,15.75
2019-03-19T09:51:32.018Z,13.60
2019-03-19T09:54:01.507Z,13.55
2019-03-19T09:56:30.957Z,18.00
2019-03-19T09:59:00.447Z,18.50
2019-03-19T10:01:29.880Z,7.30
2019-03-19T10:03:59.350Z,12.25
2019-03-19T10:06:28.766Z,16.93
2019-03-19T10:08:58.271Z,14.83
2019-03-19T10:11:27.727Z,13.85
2019-03-19T10:13:57.158Z,15.30
2019-03-19T10:16:26.594Z,19.80
2019-03-19T10:18:56.029Z,16.48
2019-03-19T10:21:24.960Z,16.85
2019-03-19T10:23:53.768Z,9.43
2019-03-19T10:26:22.664Z,12.78
2019-03-19T10:28:51.483Z,13.62
2019-03-19T10:31:21.267Z,12.93
2019-03-19T10:33:50.159Z,10.95
2019-03-19T10:36:19.050Z,14.60
2019-03-19T10:38:47.850Z,6.87
2019-03-19T10:41:16.777Z,12.98
2019-03-19T10:43:45.637Z,11.90
2019-03-19T10:46:14.977Z,11.90
2019-03-19T10:48:44.645Z,9.15
2019-03-19T10:51:14.111Z,9.13
2019-03-19T10:53:42.959Z,12.30
2019-03-19T10:56:12.417Z,12.47
2019-03-19T10:58:41.844Z,13.00
2019-03-19T11:01:11.315Z,16.10
2019-03-19T11:03:40.807Z,15.72
2019-03-19T11:06:10.257Z,13.50
2019-03-19T11:08:39.688Z,14.00
2019-03-19T11:11:09.143Z,16.75
2019-03-19T11:13:38.583Z,15.88
2019-03-19T11:16:08.029Z,18.33
2019-03-19T11:18:37.514Z,14.18
2019-03-19T11:21:06.383Z,14.17
2019-03-19T11:23:35.799Z,15.63
2019-03-19T11:26:05.387Z,13.62
2019-03-19T11:28:34.822Z,18.77
2019-03-19T11:31:04.279Z,15.72
2019-03-19T11:33:33.713Z,17.75
2019-03-19T11:36:03.154Z,15.35
2019-03-19T11:38:32.727Z,15.45
2019-03-19T11:41:02.494Z,13.88
2019-03-19T11:43:31.983Z,13.83
2019-03-19T11:46:00.841Z,10.75
2019-03-19T11:48:29.687Z,10.58
2019-03-19T11:50:59.533Z,15.95
2019-03-19T11:53:29.064Z,15.72
2019-03-19T11:55:58.467Z,19.80
2019-03-19T11:58:27.890Z,18.98
2019-03-19T12:00:59.868Z,17.40
2019-03-19T12:03:29.320Z,14.58
2019-03-19T12:05:58.769Z,15.28
2019-03-19T12:08:28.203Z,18.73
2019-03-19T12:10:58.039Z,14.53
2019-03-19T12:13:27.466Z,18.55
2019-03-19T12:15:56.930Z,15.93
2019-03-19T12:18:26.305Z,15.25
2019-03-19T12:20:55.765Z,21.05
2019-03-19T12:23:26.368Z,16.12
2019-03-19T12:25:55.832Z,16.97
2019-03-19T12:28:25.275Z,17.00
2019-03-19T12:30:55.016Z,14.25
2019-03-19T12:33:24.618Z,16.30
2019-03-19T12:35:54.134Z,13.22
2019-03-19T12:38:24.051Z,26.97
2019-03-19T12:40:53.502Z,19.00
2019-03-19T12:43:22.927Z,21.02
2019-03-19T12:45:52.394Z,14.95
2019-03-19T12:48:21.828Z,15.00
2019-03-19T12:50:51.336Z,20.25
2019-03-19T12:53:20.814Z,17.52
2019-03-19T12:55:50.312Z,19.60
2019-03-19T12:58:19.159Z,22.90
2019-03-19T13:00:48.618Z,20.08
2019-03-19T13:03:18.060Z,15.25
2019-03-19T13:05:47.523Z,19.52
2019-03-19T13:08:17.000Z,20.45
2019-03-19T13:10:46.452Z,24.02
2019-03-19T13:13:15.896Z,19.12
2019-03-19T13:15:45.367Z,22.45
2019-03-19T13:18:14.864Z,21.15
2019-03-19T13:20:43.738Z,18.02
2019-03-19T13:23:12.902Z,24.15
2019-03-19T13:25:41.814Z,17.87
2019-03-19T13:28:10.723Z,17.23
2019-03-19T13:30:44.962Z,15.65
2019-03-19T13:33:11.300Z,17.98
2019-03-19T13:35:40.742Z,16.70
2019-03-19T13:38:12.535Z,19.50
2019-03-19T13:40:41.319Z,15.15
2019-03-19T13:43:10.747Z,19.60
2019-03-19T13:45:40.162Z,17.60
2019-03-19T13:48:09.596Z,21.75
2019-03-19T13:50:39.034Z,15.93
2019-03-19T13:53:08.531Z,17.92
2019-03-19T13:55:37.969Z,22.70
2019-03-19T13:58:07.406Z,18.45
2019-03-19T14:00:38.388Z,19.16
2019-03-19T14:03:07.853Z,14.58
2019-03-19T14:05:37.278Z,19.45
2019-03-19T14:08:06.739Z,15.65
2019-03-19T14:10:36.259Z,16.27
2019-03-19T14:13:05.921Z,17.70
2019-03-19T14:15:35.360Z,19.95
2019-03-19T14:18:04.832Z,19.87
2019-03-19T14:20:34.281Z,19.50
2019-03-19T14:23:03.715Z,19.20
2019-03-19T14:25:33.211Z,23.22
2019-03-19T14:28:02.669Z,15.10
2019-03-19T14:30:32.102Z,158.40
2019-03-19T14:33:01.656Z,17.35
2019-03-19T14:35:37.255Z,158.70
2019-03-19T14:38:03.115Z,211.68
2019-03-19T14:40:32.520Z,31.00
2019-03-19T14:43:02.044Z,23.22
2019-03-19T14:45:31.412Z,31.93
2019-03-19T14:48:00.949Z,85.77
2019-03-19T14:50:30.451Z,27.35
2019-03-19T14:52:59.871Z,26.52
2019-03-19T14:55:29.401Z,30.17
2019-03-19T14:57:59.136Z,22.98
2019-03-19T15:00:28.617Z,21.93
2019-03-19T15:02:58.027Z,19.50
2019-03-19T15:05:27.587Z,18.12
2019-03-19T15:07:57.073Z,26.50
2019-03-19T15:10:26.499Z,17.70
2019-03-19T15:12:55.954Z,18.52
2019-03-19T15:15:25.424Z,17.17
2019-03-19T15:17:54.974Z,19.55
2019-03-19T15:20:24.675Z,29.60
2019-03-19T15:22:54.103Z,21.62
2019-03-19T15:25:23.602Z,15.48
2019-03-19T15:27:53.115Z,21.85
2019-03-19T15:30:22.545Z,19.53
2019-03-19T15:32:51.423Z,14.05
2019-03-19T15:35:20.848Z,22.85
2019-03-19T15:37:50.320Z,19.30
2019-03-19T15:40:20.161Z,18.50
2019-03-19T15:42:49.630Z,19.75
2019-03-19T15:45:19.059Z,19.27
2019-03-19T15:47:48.566Z,19.80
2019-03-19T15:50:18.118Z,57.62
2019-03-19T15:52:47.520Z,32.08
2019-03-19T15:55:17.020Z,28.23
2019-03-19T15:57:46.467Z,23.07
2019-03-19T16:00:16.793Z,24.55
2019-03-19T16:02:46.520Z,29.45
2019-03-19T16:05:15.980Z,25.90
2019-03-19T16:07:45.429Z,26.23
2019-03-19T16:10:15.017Z,31.10
2019-03-19T16:12:44.407Z,31.65
2019-03-19T16:15:14.494Z,41.18
2019-03-19T16:17:43.974Z,40.50
2019-03-19T16:20:14.525Z,75.80
2019-03-19T16:22:45.186Z,45.77
2019-03-19T16:25:14.798Z,33.05
2019-03-19T16:27:44.249Z,78.05
2019-03-19T16:30:14.641Z,33.80
2019-03-19T16:32:44.145Z,156.93
2019-03-19T16:35:13.859Z,61.02
2019-03-19T16:37:43.444Z,35.73
2019-03-19T16:40:15.824Z,33.80
2019-03-19T16:42:45.351Z,28.15
2019-03-19T16:45:17.549Z,57.10
2019-03-19T16:47:46.167Z,29.07
2019-03-19T16:50:16.118Z,58.58
2019-03-19T16:52:46.090Z,24.82
2019-03-19T16:55:15.893Z,26.55
2019-03-19T16:57:45.469Z,26.90
2019-03-19T17:00:16.787Z,24.87
2019-03-19T17:02:46.266Z,25.35
2019-03-19T17:05:16.513Z,23.77
2019-03-19T17:07:46.050Z,31.40
2019-03-19T17:10:16.323Z,30.02
2019-03-19T17:12:45.916Z,29.45
2019-03-19T17:15:15.971Z,30.50
2019-03-19T17:17:45.726Z,33.48
2019-03-19T17:20:15.568Z,33.00
2019-03-19T17:22:44.975Z,31.68
2019-03-19T17:25:15.587Z,35.58
2019-03-19T17:27:45.018Z,32.58
2019-03-19T17:30:19.861Z,36.68
2019-03-19T17:32:49.262Z,33.98
2019-03-19T17:35:21.672Z,38.78
2019-03-19T17:37:51.134Z,36.20
2019-03-19T17:40:20.838Z,38.53
2019-03-19T17:42:50.384Z,42.05
2019-03-19T17:45:19.858Z,42.62
2019-03-19T17:47:49.285Z,43.75
2019-03-19T17:50:19.646Z,35.17
2019-03-19T17:52:49.828Z,38.35
2019-03-19T17:55:19.411Z,41.05
2019-03-19T17:57:48.896Z,44.42
2019-03-19T18:00:23.178Z,44.90
2019-03-19T18:02:52.670Z,54.45
2019-03-19T18:05:22.217Z,52.15
2019-03-19T18:07:51.659Z,50.33
2019-03-19T18:10:21.185Z,55.73
2019-03-19T18:12:50.622Z,51.20
2019-03-19T18:15:20.071Z,59.65
2019-03-19T18:17:49.481Z,53.60
2019-03-19T18:20:18.976Z,67.17
2019-03-19T18:22:49.381Z,65.15
2019-03-19T18:25:18.823Z,55.08
2019-03-19T18:27:48.350Z,61.25
2019-03-19T18:30:17.819Z,61.90
2019-03-19T18:32:47.239Z,61.00
2019-03-19T18:35:16.677Z,57.78
2019-03-19T18:37:46.107Z,64.17
2019-03-19T18:40:15.575Z,101.55
2019-03-19T18:42:45.101Z,65.72
2019-03-19T18:45:14.595Z,58.92
2019-03-19T18:47:44.107Z,59.45
2019-03-19T18:50:14.150Z,55.08
2019-03-19T18:52:43.617Z,51.75
2019-03-19T18:55:13.317Z,61.70
2019-03-19T18:57:42.879Z,62.25
2019-03-19T19:00:15.841Z,46.60
2019-03-19T19:02:50.053Z,47.15
2019-03-19T19:05:16.517Z,53.42
2019-03-19T19:07:45.995Z,45.05
2019-03-19T19:10:15.488Z,52.25
2019-03-19T19:12:44.945Z,48.15
2019-03-19T19:15:15.001Z,50.30
2019-03-19T19:17:44.489Z,46.10
2019-03-19T19:20:14.138Z,50.50
2019-03-19T19:22:43.601Z,55.23
2019-03-19T19:25:14.008Z,66.15
2019-03-19T19:27:43.505Z,52.38
2019-03-19T19:30:15.239Z,52.27
2019-03-19T19:32:44.706Z,53.83
2019-03-19T19:35:14.243Z,48.35
2019-03-19T19:37:43.670Z,61.00
2019-03-19T19:40:14.088Z,58.58
2019-03-19T19:42:43.649Z,61.83
2019-03-19T19:45:13.159Z,53.93
2019-03-19T19:47:42.786Z,57.03
2019-03-19T19:50:13.526Z,57.25
2019-03-19T19:52:43.804Z,56.35
2019-03-19T19:55:21.400Z,63.55
2019-03-19T19:57:51.167Z,64.37
2019-03-19T20:00:20.714Z,66.22
2019-03-19T20:02:50.230Z,60.50
2019-03-19T20:05:19.670Z,56.33
2019-03-19T20:07:49.147Z,59.25
2019-03-19T20:10:18.814Z,53.75
2019-03-19T20:12:48.256Z,51.58
2019-03-19T20:15:17.997Z,52.55
2019-03-19T20:17:47.769Z,52.05
2019-03-19T20:20:18.006Z,53.38
2019-03-19T20:22:47.455Z,49.47
2019-03-19T20:25:16.952Z,57.78
2019-03-19T20:27:46.387Z,50.10
2019-03-19T20:30:17.561Z,53.42
2019-03-19T20:32:47.153Z,54.40
2019-03-19T20:35:16.652Z,58.43
2019-03-19T20:37:46.123Z,58.68
2019-03-19T20:40:15.629Z,53.28
2019-03-19T20:42:45.142Z,57.67
2019-03-19T20:45:14.645Z,54.85
2019-03-19T20:47:44.118Z,58.85
2019-03-19T20:50:22.159Z,57.03
2019-03-19T20:52:51.672Z,60.60
2019-03-19T20:55:21.196Z,64.17
2019-03-19T20:57:50.694Z,68.07
2019-03-19T21:00:20.131Z,64.77
2019-03-19T21:02:49.605Z,62.70
2019-03-19T21:05:19.051Z,61.48
2019-03-19T21:07:48.618Z,66.57
2019-03-19T21:10:19.021Z,68.17
2019-03-19T21:12:48.525Z,61.30
2019-03-19T21:15:19.651Z,54.10
2019-03-19T21:17:49.328Z,57.73
2019-03-19T21:20:18.770Z,56.60
2019-03-19T21:22:48.231Z,53.85
2019-03-19T21:25:17.881Z,55.85
2019-03-19T21:27:47.308Z,56.13
2019-03-19T21:30:18.550Z,59.10
2019-03-19T21:32:47.986Z,56.25
2019-03-19T21:35:19.800Z,58.50
2019-03-19T21:37:49.394Z,56.68
2019-03-19T21:40:19.002Z,55.70
2019-03-19T21:42:48.479Z,58.95
2019-03-19T21:45:17.382Z,56.37
2019-03-19T21:47:46.829Z,66.45
2019-03-19T21:50:16.321Z,60.80
2019-03-19T21:52:45.769Z,62.95
2019-03-19T21:55:15.396Z,59.73
2019-03-19T21:57:44.829Z,65.08
2019-03-19T22:00:15.652Z,60.38
2019-03-19T22:02:45.139Z,66.37
2019-03-19T22:05:14.574Z,65.00
2019-03-19T22:07:43.995Z,72.35
2019-03-19T22:10:14.273Z,70.85
2019-03-19T22:12:44.193Z,77.17
2019-03-19T22:15:15.587Z,77.82
2019-03-19T22:17:45.148Z,73.95
2019-03-19T22:20:15.290Z,79.58
2019-03-19T22:22:44.755Z,79.97
2019-03-19T22:25:14.234Z,70.42
2019-03-19T22:27:43.651Z,72.00
2019-03-19T22:30:14.995Z,71.47
2019-03-19T22:32:44.577Z,74.97
2019-03-19T22:35:14.908Z,73.05
2019-03-19T22:37:44.351Z,64.75
2019-03-19T22:40:14.828Z,70.37
2019-03-19T22:42:44.287Z,75.03
2019-03-19T22:45:14.621Z,90.40
2019-03-19T22:47:44.132Z,71.15
2019-03-19T22:50:14.313Z,62.70
2019-03-19T22:52:43.790Z,71.02
2019-03-19T22:55:13.480Z,73.22
2019-03-19T22:57:42.910Z,64.95
2019-03-19T23:00:37.274Z,67.20
2019-03-19T23:03:07.357Z,60.55
2019-03-19T23:05:37.404Z,55.08
2019-03-19T23:08:06.900Z,61.40
2019-03-19T23:10:36.897Z,55.48
2019-03-19T23:13:06.429Z,53.33
2019-03-19T23:15:36.004Z,49.30
2019-03-19T23:18:05.574Z,47.38
2019-03-19T23:20:34.992Z,51.10
2019-03-19T23:23:04.476Z,50.30
2019-03-19T23:25:33.958Z,47.88
2019-03-19T23:28:03.438Z,47.35
2019-03-19T23:30:32.880Z,48.15
2019-03-19T23:33:02.368Z,43.23
2019-03-19T23:35:31.808Z,43.55
2019-03-19T23:38:01.262Z,46.65
2019-03-19T23:40:30.709Z,50.38
2019-03-19T23:43:00.868Z,49.30
2019-03-19T23:45:31.564Z,43.40
2019-03-19T23:48:00.994Z,43.68
2019-03-19T23:50:30.420Z,42.40
2019-03-19T23:52:59.937Z,46.33
2019-03-19T23:55:29.368Z,45.33
2019-03-19T23:57:58.812Z,46.85
